createdAt,value
2023-05-14T00:02:11.556Z,100.00
2023-05-14T00:04:41.090Z,100.00
2023-05-14T00:07:10.091Z,100.00
2023-05-14T00:09:38.060Z,100.00
2023-05-14T00:12:06.575Z,100.00
2023-05-14T00:14:34.960Z,100.00
2023-05-14T00:17:03.094Z,100.00
2023-05-14T00:19:31.418Z,100.00
2023-05-14T00:21:59.676Z,100.00
2023-05-14T00:24:27.755Z,100.00
2023-05-14T00:26:56.109Z,100.00
2023-05-14T00:29:24.497Z,100.00
2023-05-14T00:31:52.764Z,100.00
2023-05-14T00:34:21.287Z,100.00
2023-05-14T00:36:51.193Z,100.00
2023-05-14T00:39:19.265Z,100.00
2023-05-14T00:41:47.573Z,100.00
2023-05-14T00:44:15.871Z,100.00
2023-05-14T00:46:44.038Z,100.00
2023-05-14T00:49:13.139Z,100.00
2023-05-14T00:51:42.257Z,100.00
2023-05-14T00:54:11.109Z,100.00
2023-05-14T00:56:39.676Z,100.00
2023-05-14T00:59:08.077Z,100.00
2023-05-14T01:01:36.188Z,100.00
2023-05-14T01:04:06.080Z,100.00
2023-05-14T01:06:45.154Z,100.00
2023-05-14T01:09:29.613Z,100.00
2023-05-14T01:12:18.396Z,99.48
2023-05-14T01:14:56.967Z,100.00
2023-05-14T01:17:28.519Z,100.00
2023-05-14T01:19:56.967Z,99.06
2023-05-14T01:22:25.053Z,98.84
2023-05-14T01:24:53.296Z,98.55
2023-05-14T01:27:40.250Z,98.57
2023-05-14T01:30:34.208Z,98.71
2023-05-14T01:33:08.355Z,99.75
2023-05-14T01:35:37.336Z,99.00
2023-05-14T01:38:09.414Z,99.55
2023-05-14T01:40:37.621Z,98.88
2023-05-14T01:43:06.436Z,99.37
2023-05-14T01:45:38.076Z,98.89
2023-05-14T01:48:06.645Z,98.67
2023-05-14T01:50:35.903Z,98.95
2023-05-14T01:53:04.356Z,98.94
2023-05-14T01:55:32.832Z,99.21
2023-05-14T01:58:00.977Z,97.11
2023-05-14T02:00:31.856Z,97.54
2023-05-14T02:03:00.500Z,98.13
2023-05-14T02:05:28.681Z,98.31
2023-05-14T02:07:57.120Z,96.69
2023-05-14T02:10:25.842Z,96.21
2023-05-14T02:12:54.482Z,97.30
2023-05-14T02:15:22.508Z,96.88
2023-05-14T02:17:50.665Z,96.98
2023-05-14T02:20:19.431Z,96.75
2023-05-14T02:22:47.481Z,97.03
2023-05-14T02:25:15.633Z,96.74
2023-05-14T02:27:44.910Z,95.59
2023-05-14T02:30:13.583Z,95.49
2023-05-14T02:32:41.836Z,95.32
2023-05-14T02:35:10.444Z,95.02
2023-05-14T02:37:38.532Z,94.44
2023-05-14T02:40:07.382Z,95.86
2023-05-14T02:42:36.069Z,95.52
2023-05-14T02:45:04.478Z,95.52
2023-05-14T02:47:36.020Z,94.98
2023-05-14T02:50:06.825Z,95.88
2023-05-14T02:52:35.374Z,93.83
2023-05-14T02:55:03.461Z,94.26
2023-05-14T02:57:32.132Z,94.51
2023-05-14T03:00:00.167Z,94.42
2023-05-14T03:02:28.896Z,96.09
2023-05-14T03:04:57.918Z,95.25
2023-05-14T03:07:25.987Z,94.73
2023-05-14T03:09:54.002Z,95.57
2023-05-14T03:12:22.662Z,94.06
2023-05-14T03:14:50.719Z,94.39
2023-05-14T03:17:19.120Z,95.44
2023-05-14T03:19:47.519Z,95.54
2023-05-14T03:22:15.789Z,94.47
2023-05-14T03:24:43.846Z,95.51
2023-05-14T03:27:12.235Z,95.10
2023-05-14T03:29:40.228Z,95.44
2023-05-14T03:32:08.491Z,95.34
2023-05-14T03:34:37.043Z,96.88
2023-05-14T03:37:05.501Z,95.69
2023-05-14T03:39:33.832Z,96.52
2023-05-14T03:42:02.219Z,96.25
2023-05-14T03:44:30.379Z,94.62
2023-05-14T03:46:58.596Z,96.16
2023-05-14T03:49:27.652Z,95.94
2023-05-14T03:51:56.145Z,95.65
2023-05-14T03:54:24.202Z,95.84
2023-05-14T03:56:52.546Z,96.64
2023-05-14T03:59:20.594Z,96.40
2023-05-14T04:01:48.702Z,96.61
2023-05-14T04:04:17.173Z,94.83
2023-05-14T04:06:45.396Z,97.07
2023-05-14T04:09:13.561Z,96.84
2023-05-14T04:11:41.942Z,96.81
2023-05-14T04:14:10.405Z,97.51
2023-05-14T04:16:38.699Z,97.28
2023-05-14T04:19:07.518Z,96.68
2023-05-14T04:21:35.761Z,96.49
2023-05-14T04:24:04.030Z,96.94
2023-05-14T04:26:32.404Z,97.08
2023-05-14T04:29:03.099Z,96.70
2023-05-14T04:31:31.742Z,96.92
2023-05-14T04:34:00.522Z,98.04
2023-05-14T04:36:28.876Z,97.93
2023-05-14T04:38:57.001Z,97.39
2023-05-14T04:41:25.411Z,97.42
2023-05-14T04:43:56.389Z,96.73
2023-05-14T04:46:24.542Z,97.01
2023-05-14T04:48:53.008Z,98.31
2023-05-14T04:51:21.181Z,97.27
2023-05-14T04:53:49.286Z,97.49
2023-05-14T04:56:17.881Z,98.17
2023-05-14T04:58:46.108Z,98.71
2023-05-14T05:01:15.020Z,98.32
2023-05-14T05:03:43.501Z,97.69
2023-05-14T05:06:11.986Z,98.10
2023-05-14T05:08:40.995Z,97.69
2023-05-14T05:11:09.357Z,96.77
2023-05-14T05:13:37.496Z,97.78
2023-05-14T05:16:06.154Z,97.58
2023-05-14T05:18:34.640Z,96.29
2023-05-14T05:21:02.896Z,96.16
2023-05-14T05:23:30.919Z,95.38
2023-05-14T05:25:59.337Z,97.05
2023-05-14T05:28:27.542Z,96.02
2023-05-14T05:30:55.695Z,94.83
2023-05-14T05:33:24.087Z,93.46
2023-05-14T05:35:52.532Z,95.77
2023-05-14T05:38:20.749Z,93.92
2023-05-14T05:40:49.163Z,95.24
2023-05-14T05:43:17.411Z,95.84
2023-05-14T05:45:46.114Z,96.91
2023-05-14T05:48:14.477Z,97.35
2023-05-14T05:50:44.758Z,97.94
2023-05-14T05:53:12.990Z,97.09
2023-05-14T05:55:41.393Z,96.37
2023-05-14T05:58:09.808Z,97.65
2023-05-14T06:00:38.091Z,99.60
2023-05-14T06:03:06.496Z,99.04
2023-05-14T06:05:34.865Z,99.30
2023-05-14T06:08:03.286Z,98.60
2023-05-14T06:10:31.720Z,99.15
2023-05-14T06:13:00.005Z,98.50
2023-05-14T06:15:28.176Z,99.68
2023-05-14T06:17:56.714Z,99.67
2023-05-14T06:20:25.129Z,100.00
2023-05-14T06:22:53.377Z,98.71
2023-05-14T06:25:21.781Z,99.89
2023-05-14T06:27:49.865Z,99.36
2023-05-14T06:30:18.036Z,100.00
2023-05-14T06:32:46.451Z,100.00
2023-05-14T06:35:14.963Z,100.00
2023-05-14T06:37:43.340Z,100.00
2023-05-14T06:40:12.887Z,100.00
2023-05-14T06:42:41.074Z,100.00
2023-05-14T06:45:09.713Z,100.00
2023-05-14T06:47:38.363Z,100.00
2023-05-14T06:50:07.581Z,100.00
2023-05-14T06:52:37.666Z,100.00
2023-05-14T06:55:06.382Z,100.00
2023-05-14T06:57:34.706Z,100.00
2023-05-14T07:00:03.939Z,100.00
2023-05-14T07:02:32.252Z,100.00
2023-05-14T07:05:00.858Z,100.00
2023-05-14T07:07:29.250Z,100.00
2023-05-14T07:09:57.432Z,100.00
2023-05-14T07:12:25.924Z,100.00
2023-05-14T07:14:54.269Z,100.00
2023-05-14T07:17:22.514Z,100.00
2023-05-14T07:19:51.349Z,100.00
2023-05-14T07:22:19.813Z,100.00
2023-05-14T07:24:48.107Z,100.00
2023-05-14T07:27:17.213Z,100.00
2023-05-14T07:29:45.609Z,100.00
2023-05-14T07:32:15.592Z,100.00
2023-05-14T07:34:44.310Z,100.00
2023-05-14T07:37:12.830Z,100.00
2023-05-14T07:39:41.788Z,100.00
2023-05-14T07:42:09.866Z,100.00
2023-05-14T07:44:38.377Z,100.00
2023-05-14T07:47:08.713Z,100.00
2023-05-14T07:49:36.955Z,100.00
2023-05-14T07:52:05.665Z,100.00
2023-05-14T07:54:33.801Z,100.00
2023-05-14T07:57:02.987Z,99.43
2023-05-14T07:59:31.354Z,99.88
2023-05-14T08:01:59.613Z,97.62
2023-05-14T08:04:28.212Z,99.02
2023-05-14T08:06:58.148Z,99.82
2023-05-14T08:09:26.197Z,100.00
2023-05-14T08:11:54.647Z,99.80
2023-05-14T08:14:22.775Z,98.85
2023-05-14T08:16:51.009Z,100.00
2023-05-14T08:19:19.650Z,99.98
2023-05-14T08:21:47.791Z,98.54
2023-05-14T08:24:16.079Z,99.29
2023-05-14T08:26:44.426Z,100.00
2023-05-14T08:29:14.698Z,97.18
2023-05-14T08:31:44.826Z,99.42
2023-05-14T08:34:12.858Z,98.62
2023-05-14T08:36:40.938Z,97.22
2023-05-14T08:39:09.502Z,100.00
2023-05-14T08:41:37.808Z,100.00
2023-05-14T08:44:14.013Z,100.00
2023-05-14T08:46:42.490Z,99.98
2023-05-14T08:49:43.045Z,99.81
2023-05-14T08:52:12.843Z,100.00
2023-05-14T08:54:41.249Z,98.56
2023-05-14T08:57:11.212Z,100.00
2023-05-14T08:59:39.701Z,100.00
2023-05-14T09:02:13.386Z,100.00
2023-05-14T09:04:43.011Z,100.00
2023-05-14T09:07:11.638Z,100.00
2023-05-14T09:09:40.454Z,100.00
2023-05-14T09:12:09.352Z,100.00
2023-05-14T09:14:37.680Z,100.00
2023-05-14T09:17:05.838Z,100.00
2023-05-14T09:19:34.476Z,100.00
2023-05-14T09:22:08.130Z,100.00
2023-05-14T09:24:38.740Z,100.00
2023-05-14T09:27:07.219Z,100.00
2023-05-14T09:29:35.399Z,100.00
2023-05-14T09:32:05.733Z,100.00
2023-05-14T09:34:37.829Z,100.00
2023-05-14T09:37:07.837Z,100.00
2023-05-14T09:39:37.763Z,100.00
2023-05-14T09:42:06.436Z,100.00
2023-05-14T09:44:36.367Z,100.00
2023-05-14T09:47:04.792Z,100.00
2023-05-14T09:49:33.850Z,100.00
2023-05-14T09:52:06.868Z,100.00
2023-05-14T09:54:36.156Z,100.00
2023-05-14T09:57:04.766Z,100.00
2023-05-14T09:59:33.500Z,100.00
2023-05-14T10:02:02.482Z,100.00
2023-05-14T10:04:31.860Z,100.00
2023-05-14T10:07:01.067Z,100.00
2023-05-14T10:09:30.044Z,100.00
2023-05-14T10:12:01.202Z,100.00
2023-05-14T10:14:53.317Z,100.00
2023-05-14T10:17:23.335Z,100.00
2023-05-14T10:19:54.570Z,100.00
2023-05-14T10:22:24.518Z,100.00
2023-05-14T10:24:54.514Z,100.00
2023-05-14T10:27:23.782Z,100.00
2023-05-14T10:29:54.532Z,100.00
2023-05-14T10:32:25.645Z,100.00
2023-05-14T10:34:54.306Z,100.00
2023-05-14T10:37:26.832Z,100.00
2023-05-14T10:40:07.212Z,100.00
2023-05-14T10:42:40.595Z,100.00
2023-05-14T10:45:10.883Z,100.00
2023-05-14T10:47:41.913Z,100.00
2023-05-14T10:50:15.086Z,100.00
2023-05-14T10:52:45.574Z,100.00
2023-05-14T10:55:15.482Z,100.00
2023-05-14T10:57:45.813Z,100.00
2023-05-14T11:00:15.099Z,100.00
2023-05-14T11:02:45.163Z,100.00
2023-05-14T11:05:19.642Z,100.00
2023-05-14T11:07:49.610Z,100.00
2023-05-14T11:10:19.705Z,100.00
2023-05-14T11:12:49.984Z,100.00
2023-05-14T11:15:22.898Z,100.00
2023-05-14T11:17:52.426Z,100.00
2023-05-14T11:20:21.440Z,100.00
2023-05-14T11:22:51.838Z,100.00
2023-05-14T11:25:21.829Z,100.00
2023-05-14T11:27:50.585Z,100.00
2023-05-14T11:30:20.693Z,100.00
2023-05-14T11:32:50.175Z,100.00
2023-05-14T11:35:19.024Z,100.00
2023-05-14T11:37:52.509Z,100.00
2023-05-14T11:40:21.453Z,100.00
2023-05-14T11:42:53.334Z,100.00
2023-05-14T11:45:26.574Z,100.00
2023-05-14T11:47:55.372Z,100.00
2023-05-14T11:50:24.197Z,100.00
2023-05-14T11:52:57.457Z,100.00
2023-05-14T11:55:26.230Z,100.00
2023-05-14T11:57:54.602Z,100.00
2023-05-14T12:00:24.655Z,100.00
2023-05-14T12:02:54.519Z,100.00
2023-05-14T12:05:22.828Z,100.00
2023-05-14T12:07:51.205Z,100.00
2023-05-14T12:10:19.757Z,100.00
2023-05-14T12:12:48.489Z,100.00
2023-05-14T12:15:21.851Z,100.00
2023-05-14T12:17:51.980Z,100.00
2023-05-14T12:20:20.975Z,100.00
2023-05-14T12:22:49.458Z,100.00
2023-05-14T12:25:17.677Z,100.00
2023-05-14T12:27:45.803Z,100.00
2023-05-14T12:32:46.386Z,100.00
2023-05-14T12:35:15.177Z,100.00
2023-05-14T12:37:43.311Z,100.00
2023-05-14T12:40:11.916Z,100.00
2023-05-14T12:42:40.378Z,100.00
2023-05-14T12:45:08.858Z,100.00
2023-05-14T12:47:37.579Z,100.00
2023-05-14T12:50:07.004Z,100.00
2023-05-14T12:55:09.844Z,100.00
2023-05-14T12:57:39.457Z,100.00
2023-05-14T13:00:14.231Z,100.00
2023-05-14T13:02:43.686Z,100.00
2023-05-14T13:05:12.907Z,100.00
2023-05-14T13:07:41.606Z,100.00
2023-05-14T13:10:10.173Z,100.00
2023-05-14T13:12:38.803Z,100.00
2023-05-14T13:15:07.683Z,100.00
2023-05-14T13:17:36.324Z,100.00
2023-05-14T13:20:05.318Z,100.00
2023-05-14T13:22:33.581Z,100.00
2023-05-14T13:25:01.722Z,100.00
2023-05-14T13:27:30.559Z,100.00
2023-05-14T13:29:58.637Z,100.00
2023-05-14T13:32:26.829Z,100.00
2023-05-14T13:34:55.695Z,100.00
2023-05-14T13:37:24.672Z,100.00
2023-05-14T13:39:52.718Z,100.00
2023-05-14T13:42:21.098Z,100.00
2023-05-14T13:44:49.108Z,100.00
2023-05-14T13:47:17.207Z,100.00
2023-05-14T13:49:45.785Z,100.00
2023-05-14T13:52:14.044Z,100.00
2023-05-14T13:54:42.130Z,100.00
2023-05-14T13:57:10.986Z,100.00
2023-05-14T13:59:39.044Z,100.00
2023-05-14T14:02:08.126Z,100.00
2023-05-14T14:04:36.854Z,100.00
2023-05-14T14:07:05.032Z,100.00
2023-05-14T14:09:36.009Z,100.00
2023-05-14T14:12:04.894Z,100.00
2023-05-14T14:14:33.114Z,100.00
2023-05-14T14:17:01.346Z,100.00
2023-05-14T14:19:30.100Z,100.00
2023-05-14T14:21:58.206Z,100.00
2023-05-14T14:24:26.333Z,100.00
2023-05-14T14:26:54.769Z,100.00
2023-05-14T14:29:23.961Z,100.00
2023-05-14T14:31:52.210Z,100.00
2023-05-14T14:34:21.714Z,100.00
2023-05-14T14:36:49.877Z,100.00
2023-05-14T14:39:17.949Z,100.00
2023-05-14T14:41:47.620Z,100.00
2023-05-14T14:44:15.847Z,100.00
2023-05-14T14:46:43.962Z,100.00
2023-05-14T14:49:12.531Z,100.00
2023-05-14T14:51:40.946Z,100.00
2023-05-14T14:54:09.030Z,100.00
2023-05-14T14:56:37.801Z,100.00
2023-05-14T14:59:06.073Z,100.00
2023-05-14T15:01:34.338Z,100.00
2023-05-14T15:04:03.170Z,100.00
2023-05-14T15:06:31.349Z,100.00
2023-05-14T15:08:59.684Z,100.00
2023-05-14T15:11:29.243Z,100.00
2023-05-14T15:13:57.376Z,100.00
2023-05-14T15:16:25.555Z,100.00
2023-05-14T15:18:54.432Z,100.00
2023-05-14T15:21:22.650Z,100.00
2023-05-14T15:23:50.876Z,100.00
2023-05-14T15:26:19.502Z,100.00
2023-05-14T15:28:47.609Z,100.00
2023-05-14T15:31:16.483Z,100.00
2023-05-14T15:33:45.404Z,100.00
2023-05-14T15:36:13.730Z,100.00
2023-05-14T15:38:42.317Z,100.00
2023-05-14T15:41:10.995Z,100.00
2023-05-14T15:43:39.116Z,100.00
2023-05-14T15:46:07.196Z,100.00
2023-05-14T15:48:36.525Z,100.00
2023-05-14T15:51:04.876Z,100.00
2023-05-14T15:53:33.349Z,100.00
2023-05-14T15:56:02.425Z,100.00
2023-05-14T15:58:30.654Z,100.00
2023-05-14T16:00:58.790Z,100.00
2023-05-14T16:03:27.287Z,100.00
2023-05-14T16:05:55.575Z,100.00
2023-05-14T16:08:23.733Z,100.00
2023-05-14T16:10:52.154Z,100.00
2023-05-14T16:13:20.345Z,100.00
2023-05-14T16:15:48.507Z,100.00
2023-05-14T16:18:17.023Z,100.00
2023-05-14T16:20:45.113Z,100.00
2023-05-14T16:23:13.203Z,100.00
2023-05-14T16:25:41.756Z,100.00
2023-05-14T16:28:09.950Z,100.00
2023-05-14T16:30:38.486Z,100.00
2023-05-14T16:33:07.136Z,100.00
2023-05-14T16:35:35.214Z,100.00
2023-05-14T16:38:03.408Z,100.00
2023-05-14T16:40:32.222Z,100.00
2023-05-14T16:43:00.469Z,100.00
2023-05-14T16:45:28.661Z,100.00
2023-05-14T16:47:57.731Z,100.00
2023-05-14T16:50:25.855Z,100.00
2023-05-14T16:52:53.870Z,100.00
2023-05-14T16:55:22.551Z,100.00
2023-05-14T16:57:50.913Z,100.00
2023-05-14T17:00:19.116Z,100.00
2023-05-14T17:02:49.886Z,100.00
2023-05-14T17:05:17.961Z,100.00
2023-05-14T17:07:46.060Z,100.00
2023-05-14T17:10:14.693Z,100.00
2023-05-14T17:12:42.800Z,100.00
2023-05-14T17:15:11.737Z,100.00
2023-05-14T17:17:40.239Z,100.00
2023-05-14T17:20:09.122Z,100.00
2023-05-14T17:22:37.333Z,100.00
2023-05-14T17:25:06.369Z,100.00
2023-05-14T17:27:34.913Z,100.00
2023-05-14T17:30:03.957Z,100.00
2023-05-14T17:32:32.591Z,100.00
2023-05-14T17:35:00.925Z,100.00
2023-05-14T17:37:29.068Z,100.00
2023-05-14T17:39:57.714Z,100.00
2023-05-14T17:42:25.808Z,100.00
2023-05-14T17:44:53.998Z,100.00
2023-05-14T17:47:22.612Z,100.00
2023-05-14T17:49:53.889Z,100.00
2023-05-14T17:52:23.164Z,100.00
2023-05-14T17:54:51.728Z,100.00
2023-05-14T17:57:19.961Z,100.00
2023-05-14T17:59:48.391Z,100.00
2023-05-14T18:02:16.618Z,100.00
2023-05-14T18:04:45.251Z,100.00
2023-05-14T18:07:13.643Z,100.00
2023-05-14T18:09:41.790Z,100.00
2023-05-14T18:12:10.338Z,100.00
2023-05-14T18:14:38.539Z,100.00
2023-05-14T18:17:07.158Z,100.00
2023-05-14T18:19:36.637Z,100.00
2023-05-14T18:22:04.832Z,100.00
2023-05-14T18:24:32.975Z,100.00
2023-05-14T18:27:01.624Z,100.00
2023-05-14T18:29:30.179Z,100.00
2023-05-14T18:31:58.422Z,100.00
2023-05-14T18:34:26.889Z,100.00
2023-05-14T18:36:55.121Z,100.00
2023-05-14T18:39:24.077Z,100.00
2023-05-14T18:41:52.538Z,100.00
2023-05-14T18:44:20.797Z,100.00
2023-05-14T18:46:49.247Z,100.00
2023-05-14T18:49:18.501Z,100.00
2023-05-14T18:51:47.241Z,100.00
2023-05-14T18:54:15.846Z,100.00
2023-05-14T18:56:46.837Z,100.00
2023-05-14T18:59:15.868Z,100.00
2023-05-14T19:01:44.309Z,100.00
2023-05-14T19:04:12.649Z,100.00
2023-05-14T19:06:41.026Z,100.00
2023-05-14T19:09:10.866Z,100.00
2023-05-14T19:11:39.279Z,100.00
2023-05-14T19:14:07.377Z,100.00
2023-05-14T19:16:35.997Z,100.00
2023-05-14T19:19:04.506Z,100.00
2023-05-14T19:21:33.011Z,100.00
2023-05-14T19:24:01.377Z,100.00
2023-05-14T19:26:29.470Z,100.00
2023-05-14T19:29:00.332Z,100.00
2023-05-14T19:31:29.044Z,100.00
2023-05-14T19:33:57.512Z,100.00
2023-05-14T19:36:25.696Z,100.00
2023-05-14T19:38:54.195Z,100.00
2023-05-14T19:41:23.065Z,100.00
2023-05-14T19:43:51.347Z,100.00
2023-05-14T19:46:19.765Z,100.00
2023-05-14T19:48:49.335Z,100.00
2023-05-14T19:51:17.425Z,100.00
2023-05-14T19:53:46.425Z,100.00
2023-05-14T19:56:15.585Z,100.00
2023-05-14T19:58:44.410Z,100.00
2023-05-14T20:01:13.133Z,100.00
2023-05-14T20:03:42.001Z,100.00
2023-05-14T20:06:10.092Z,100.00
2023-05-14T20:08:38.492Z,100.00
2023-05-14T20:11:07.397Z,100.00
2023-05-14T20:13:36.525Z,100.00
2023-05-14T20:16:05.097Z,100.00
2023-05-14T20:18:33.836Z,100.00
2023-05-14T20:21:02.591Z,100.00
2023-05-14T20:23:30.880Z,100.00
2023-05-14T20:26:01.852Z,100.00
2023-05-14T20:28:30.544Z,100.00
2023-05-14T20:31:00.229Z,100.00
2023-05-14T20:33:29.227Z,100.00
2023-05-14T20:35:57.562Z,100.00
2023-05-14T20:38:29.243Z,100.00
2023-05-14T20:40:57.696Z,100.00
2023-05-14T20:43:27.598Z,100.00
2023-05-14T20:45:57.320Z,100.00
2023-05-14T20:48:26.123Z,100.00
2023-05-14T20:50:54.303Z,100.00
2023-05-14T20:53:22.606Z,100.00
2023-05-14T20:55:51.204Z,100.00
2023-05-14T20:58:20.443Z,100.00
2023-05-14T21:00:48.600Z,100.00
2023-05-14T21:03:17.113Z,100.00
2023-05-14T21:05:45.764Z,100.00
2023-05-14T21:08:13.898Z,100.00
2023-05-14T21:10:42.345Z,100.00
2023-05-14T21:13:10.524Z,100.00
2023-05-14T21:15:38.677Z,100.00
2023-05-14T21:18:07.176Z,100.00
2023-05-14T21:20:35.416Z,100.00
2023-05-14T21:23:03.779Z,100.00
2023-05-14T21:25:32.329Z,100.00
2023-05-14T21:28:00.465Z,100.00
2023-05-14T21:30:28.734Z,100.00
2023-05-14T21:32:57.468Z,100.00
2023-05-14T21:35:25.958Z,100.00
2023-05-14T21:37:54.388Z,100.00
2023-05-14T21:40:22.781Z,100.00
2023-05-14T21:42:51.009Z,100.00
2023-05-14T21:45:20.141Z,100.00
2023-05-14T21:47:49.607Z,100.00
2023-05-14T21:50:17.784Z,100.00
2023-05-14T21:52:45.922Z,100.00
2023-05-14T21:55:14.625Z,100.00
2023-05-14T21:57:42.617Z,100.00
2023-05-14T22:00:13.161Z,100.00
2023-05-14T22:02:43.609Z,100.00
2023-05-14T22:05:11.791Z,100.00
2023-05-14T22:07:40.015Z,100.00
2023-05-14T22:10:08.975Z,100.00
2023-05-14T22:12:37.066Z,100.00
2023-05-14T22:15:06.422Z,100.00
2023-05-14T22:17:35.176Z,100.00
2023-05-14T22:20:06.578Z,100.00
2023-05-14T22:22:35.193Z,100.00
2023-05-14T22:25:04.157Z,100.00
2023-05-14T22:27:32.638Z,100.00
2023-05-14T22:30:01.119Z,100.00
2023-05-14T22:32:29.485Z,100.00
2023-05-14T22:34:57.657Z,100.00
2023-05-14T22:37:26.232Z,100.00
2023-05-14T22:39:54.500Z,100.00
2023-05-14T22:42:22.660Z,100.00
2023-05-14T22:44:51.069Z,100.00
2023-05-14T22:47:19.612Z,100.00
2023-05-14T22:49:47.781Z,100.00
2023-05-14T22:52:16.130Z,100.00
2023-05-14T22:54:46.666Z,100.00
2023-05-14T22:57:14.809Z,100.00
2023-05-14T22:59:43.195Z,100.00
2023-05-14T23:02:11.351Z,100.00
2023-05-14T23:04:39.512Z,100.00
2023-05-14T23:07:08.172Z,100.00
2023-05-14T23:09:36.382Z,100.00
2023-05-14T23:12:04.788Z,100.00
2023-05-14T23:14:33.168Z,100.00
2023-05-14T23:17:01.755Z,100.00
2023-05-14T23:19:30.207Z,100.00
2023-05-14T23:21:59.452Z,100.00
2023-05-14T23:24:27.647Z,100.00
2023-05-14T23:26:56.053Z,100.00
2023-05-14T23:29:24.597Z,100.00
2023-05-14T23:31:52.985Z,100.00
2023-05-14T23:34:22.189Z,100.00
2023-05-14T23:36:51.050Z,100.00
2023-05-14T23:39:19.345Z,100.00
2023-05-14T23:41:47.377Z,100.00
2023-05-14T23:44:15.744Z,100.00
2023-05-14T23:46:44.032Z,100.00
2023-05-14T23:49:12.591Z,100.00
2023-05-14T23:51:41.028Z,100.00
2023-05-14T23:54:09.203Z,100.00
2023-05-14T23:56:37.415Z,100.00
2023-05-14T23:59:05.720Z,100.00
